sensor_id;sensor_type;location;lat;lon;timestamp;P1;durP1;ratioP1;P2;durP2;ratioP2
21299;SDS011;10809;49.476;11.016;2022-11-14T00:00:50;17.03;;;10.13;;
21299;SDS011;10809;49.476;11.016;2022-11-14T00:03:39;16.57;;;9.80;;
21299;SDS011;10809;49.476;11.016;2022-11-14T00:06:28;14.93;;;10.37;;
21299;SDS011;10809;49.476;11.016;2022-11-14T00:09:17;18.80;;;12.03;;
21299;SDS011;10809;49.476;11.016;2022-11-14T00:12:06;15.40;;;10.00;;
21299;SDS011;10809;49.476;11.016;2022-11-14T00:14:55;16.10;;;10.30;;
21299;SDS011;10809;49.476;11.016;2022-11-14T00:17:44;14.83;;;9.60;;
21299;SDS011;10809;49.476;11.016;2022-11-14T00:20:32;16.03;;;9.43;;
21299;SDS011;10809;49.476;11.016;2022-11-14T00:23:21;15.77;;;9.93;;
21299;SDS011;10809;49.476;11.016;2022-11-14T00:26:10;21.13;;;11.50;;
21299;SDS011;10809;49.476;11.016;2022-11-14T00:28:59;20.00;;;10.97;;
21299;SDS011;10809;49.476;11.016;2022-11-14T00:31:48;20.23;;;11.33;;
21299;SDS011;10809;49.476;11.016;2022-11-14T00:34:37;20.03;;;11.60;;
21299;SDS011;10809;49.476;11.016;2022-11-14T00:37:26;18.57;;;11.60;;
21299;SDS011;10809;49.476;11.016;2022-11-14T00:40:15;23.00;;;13.80;;
21299;SDS011;10809;49.476;11.016;2022-11-14T00:43:04;22.30;;;13.10;;
21299;SDS011;10809;49.476;11.016;2022-11-14T00:45:53;18.10;;;11.47;;
21299;SDS011;10809;49.476;11.016;2022-11-14T00:48:42;20.70;;;11.60;;
21299;SDS011;10809;49.476;11.016;2022-11-14T00:51:31;16.40;;;10.93;;
21299;SDS011;10809;49.476;11.016;2022-11-14T00:54:20;20.90;;;12.70;;
21299;SDS011;10809;49.476;11.016;2022-11-14T00:57:09;21.53;;;12.83;;
21299;SDS011;10809;49.476;11.016;2022-11-14T00:59:58;22.60;;;13.87;;
21299;SDS011;10809;49.476;11.016;2022-11-14T01:02:47;24.70;;;14.87;;
21299;SDS011;10809;49.476;11.016;2022-11-14T01:05:43;23.10;;;13.30;;
21299;SDS011;10809;49.476;11.016;2022-11-14T01:08:33;19.87;;;12.00;;
21299;SDS011;10809;49.476;11.016;2022-11-14T01:11:23;20.97;;;12.27;;
21299;SDS011;10809;49.476;11.016;2022-11-14T01:14:11;17.53;;;10.83;;
21299;SDS011;10809;49.476;11.016;2022-11-14T01:17:00;18.77;;;11.63;;
21299;SDS011;10809;49.476;11.016;2022-11-14T01:19:49;15.13;;;9.60;;
21299;SDS011;10809;49.476;11.016;2022-11-14T01:22:39;14.23;;;9.10;;
21299;SDS011;10809;49.476;11.016;2022-11-14T01:25:27;15.13;;;9.13;;
21299;SDS011;10809;49.476;11.016;2022-11-14T01:28:19;17.47;;;10.40;;
21299;SDS011;10809;49.476;11.016;2022-11-14T01:31:15;17.93;;;10.93;;
21299;SDS011;10809;49.476;11.016;2022-11-14T01:34:06;18.47;;;10.63;;
21299;SDS011;10809;49.476;11.016;2022-11-14T01:36:55;16.07;;;9.57;;
21299;SDS011;10809;49.476;11.016;2022-11-14T01:39:44;18.57;;;10.50;;
21299;SDS011;10809;49.476;11.016;2022-11-14T01:42:33;22.00;;;11.07;;
21299;SDS011;10809;49.476;11.016;2022-11-14T01:48:48;15.50;;;9.77;;
21299;SDS011;10809;49.476;11.016;2022-11-14T01:51:40;17.30;;;9.80;;
21299;SDS011;10809;49.476;11.016;2022-11-14T01:54:33;14.93;;;9.97;;
21299;SDS011;10809;49.476;11.016;2022-11-14T01:57:38;16.70;;;9.23;;
21299;SDS011;10809;49.476;11.016;2022-11-14T02:00:31;15.43;;;9.47;;
21299;SDS011;10809;49.476;11.016;2022-11-14T02:03:20;17.50;;;9.87;;
21299;SDS011;10809;49.476;11.016;2022-11-14T02:06:12;17.70;;;10.87;;
21299;SDS011;10809;49.476;11.016;2022-11-14T02:09:03;15.13;;;9.70;;
21299;SDS011;10809;49.476;11.016;2022-11-14T02:11:54;16.93;;;9.77;;
21299;SDS011;10809;49.476;11.016;2022-11-14T02:14:46;14.17;;;8.70;;
21299;SDS011;10809;49.476;11.016;2022-11-14T02:17:37;16.10;;;9.63;;
21299;SDS011;10809;49.476;11.016;2022-11-14T02:20:27;15.93;;;9.50;;
21299;SDS011;10809;49.476;11.016;2022-11-14T02:23:24;16.07;;;9.53;;
21299;SDS011;10809;49.476;11.016;2022-11-14T02:26:17;15.23;;;9.50;;
21299;SDS011;10809;49.476;11.016;2022-11-14T02:29:08;15.20;;;9.27;;
21299;SDS011;10809;49.476;11.016;2022-11-14T02:31:58;16.30;;;9.57;;
21299;SDS011;10809;49.476;11.016;2022-11-14T02:34:47;16.87;;;11.07;;
21299;SDS011;10809;49.476;11.016;2022-11-14T02:37:36;14.57;;;9.87;;
21299;SDS011;10809;49.476;11.016;2022-11-14T02:40:25;14.77;;;9.07;;
21299;SDS011;10809;49.476;11.016;2022-11-14T02:43:14;15.87;;;9.63;;
21299;SDS011;10809;49.476;11.016;2022-11-14T02:46:03;16.37;;;9.47;;
21299;SDS011;10809;49.476;11.016;2022-11-14T02:48:52;16.63;;;10.37;;
21299;SDS011;10809;49.476;11.016;2022-11-14T02:51:41;16.23;;;10.07;;
21299;SDS011;10809;49.476;11.016;2022-11-14T02:54:30;17.67;;;10.47;;
21299;SDS011;10809;49.476;11.016;2022-11-14T02:57:19;19.90;;;10.37;;
21299;SDS011;10809;49.476;11.016;2022-11-14T03:00:08;14.70;;;8.77;;
21299;SDS011;10809;49.476;11.016;2022-11-14T03:02:57;17.97;;;11.60;;
21299;SDS011;10809;49.476;11.016;2022-11-14T03:05:46;17.07;;;9.77;;
21299;SDS011;10809;49.476;11.016;2022-11-14T03:08:35;17.77;;;10.33;;
21299;SDS011;10809;49.476;11.016;2022-11-14T03:11:24;14.13;;;8.23;;
21299;SDS011;10809;49.476;11.016;2022-11-14T03:14:13;15.40;;;9.63;;
21299;SDS011;10809;49.476;11.016;2022-11-14T03:17:02;20.77;;;10.83;;
21299;SDS011;10809;49.476;11.016;2022-11-14T03:19:51;18.37;;;10.73;;
21299;SDS011;10809;49.476;11.016;2022-11-14T03:22:40;19.60;;;10.20;;
21299;SDS011;10809;49.476;11.016;2022-11-14T03:25:29;21.80;;;12.67;;
21299;SDS011;10809;49.476;11.016;2022-11-14T03:28:18;17.67;;;10.77;;
21299;SDS011;10809;49.476;11.016;2022-11-14T03:31:07;18.83;;;10.60;;
21299;SDS011;10809;49.476;11.016;2022-11-14T03:33:58;15.03;;;9.73;;
21299;SDS011;10809;49.476;11.016;2022-11-14T03:36:47;19.17;;;10.43;;
21299;SDS011;10809;49.476;11.016;2022-11-14T03:39:36;16.43;;;10.63;;
21299;SDS011;10809;49.476;11.016;2022-11-14T03:42:25;17.50;;;10.63;;
21299;SDS011;10809;49.476;11.016;2022-11-14T03:45:14;16.07;;;10.17;;
21299;SDS011;10809;49.476;11.016;2022-11-14T03:48:04;17.30;;;10.30;;
21299;SDS011;10809;49.476;11.016;2022-11-14T03:50:54;15.30;;;9.30;;
21299;SDS011;10809;49.476;11.016;2022-11-14T03:53:43;14.50;;;9.50;;
21299;SDS011;10809;49.476;11.016;2022-11-14T03:56:32;11.57;;;8.50;;
21299;SDS011;10809;49.476;11.016;2022-11-14T03:59:21;12.37;;;8.53;;
21299;SDS011;10809;49.476;11.016;2022-11-14T04:02:10;15.73;;;9.13;;
21299;SDS011;10809;49.476;11.016;2022-11-14T04:04:59;12.83;;;7.47;;
21299;SDS011;10809;49.476;11.016;2022-11-14T04:07:47;12.40;;;7.37;;
21299;SDS011;10809;49.476;11.016;2022-11-14T04:10:36;11.20;;;7.70;;
21299;SDS011;10809;49.476;11.016;2022-11-14T04:13:25;11.07;;;7.73;;
21299;SDS011;10809;49.476;11.016;2022-11-14T04:16:14;12.90;;;7.63;;
21299;SDS011;10809;49.476;11.016;2022-11-14T04:19:03;11.73;;;7.17;;
21299;SDS011;10809;49.476;11.016;2022-11-14T04:21:52;11.60;;;6.33;;
21299;SDS011;10809;49.476;11.016;2022-11-14T04:24:41;9.63;;;6.63;;
21299;SDS011;10809;49.476;11.016;2022-11-14T04:27:30;10.13;;;6.93;;
21299;SDS011;10809;49.476;11.016;2022-11-14T04:30:19;11.23;;;7.03;;
21299;SDS011;10809;49.476;11.016;2022-11-14T04:33:08;10.63;;;7.63;;
21299;SDS011;10809;49.476;11.016;2022-11-14T04:35:57;9.57;;;6.27;;
21299;SDS011;10809;49.476;11.016;2022-11-14T04:38:46;11.10;;;7.23;;
21299;SDS011;10809;49.476;11.016;2022-11-14T04:41:34;12.97;;;7.30;;
21299;SDS011;10809;49.476;11.016;2022-11-14T04:44:23;8.47;;;6.27;;
21299;SDS011;10809;49.476;11.016;2022-11-14T04:47:12;10.67;;;6.17;;
21299;SDS011;10809;49.476;11.016;2022-11-14T04:50:02;7.80;;;6.27;;
21299;SDS011;10809;49.476;11.016;2022-11-14T04:52:51;12.47;;;7.00;;
21299;SDS011;10809;49.476;11.016;2022-11-14T04:55:42;8.60;;;6.40;;
21299;SDS011;10809;49.476;11.016;2022-11-14T04:58:32;10.90;;;6.70;;
21299;SDS011;10809;49.476;11.016;2022-11-14T05:01:21;13.00;;;6.83;;
21299;SDS011;10809;49.476;11.016;2022-11-14T05:04:10;10.37;;;6.70;;
21299;SDS011;10809;49.476;11.016;2022-11-14T05:06:59;10.33;;;6.10;;
21299;SDS011;10809;49.476;11.016;2022-11-14T05:09:48;9.43;;;6.67;;
21299;SDS011;10809;49.476;11.016;2022-11-14T05:12:37;10.30;;;7.13;;
21299;SDS011;10809;49.476;11.016;2022-11-14T05:15:26;11.70;;;8.00;;
21299;SDS011;10809;49.476;11.016;2022-11-14T05:18:15;10.47;;;6.60;;
21299;SDS011;10809;49.476;11.016;2022-11-14T05:21:04;9.47;;;6.50;;
21299;SDS011;10809;49.476;11.016;2022-11-14T05:23:53;9.10;;;6.37;;
21299;SDS011;10809;49.476;11.016;2022-11-14T05:26:42;10.97;;;6.80;;
21299;SDS011;10809;49.476;11.016;2022-11-14T05:29:31;10.30;;;6.87;;
21299;SDS011;10809;49.476;11.016;2022-11-14T05:32:20;15.63;;;7.27;;
21299;SDS011;10809;49.476;11.016;2022-11-14T05:35:10;9.10;;;6.27;;
21299;SDS011;10809;49.476;11.016;2022-11-14T05:37:59;10.73;;;6.27;;
21299;SDS011;10809;49.476;11.016;2022-11-14T05:40:49;13.43;;;7.87;;
21299;SDS011;10809;49.476;11.016;2022-11-14T05:43:38;10.93;;;7.30;;
21299;SDS011;10809;49.476;11.016;2022-11-14T05:46:28;10.30;;;6.90;;
21299;SDS011;10809;49.476;11.016;2022-11-14T05:49:17;10.97;;;7.30;;
21299;SDS011;10809;49.476;11.016;2022-11-14T05:52:06;11.27;;;6.73;;
21299;SDS011;10809;49.476;11.016;2022-11-14T05:54:54;10.30;;;6.40;;
21299;SDS011;10809;49.476;11.016;2022-11-14T05:57:43;12.70;;;7.77;;
21299;SDS011;10809;49.476;11.016;2022-11-14T06:00:32;10.20;;;7.33;;
21299;SDS011;10809;49.476;11.016;2022-11-14T06:03:21;14.00;;;7.60;;
21299;SDS011;10809;49.476;11.016;2022-11-14T06:06:15;13.13;;;8.27;;
21299;SDS011;10809;49.476;11.016;2022-11-14T06:09:05;10.63;;;7.27;;
21299;SDS011;10809;49.476;11.016;2022-11-14T06:11:55;11.80;;;8.10;;
21299;SDS011;10809;49.476;11.016;2022-11-14T06:14:44;12.33;;;7.90;;
21299;SDS011;10809;49.476;11.016;2022-11-14T06:17:33;12.93;;;8.10;;
21299;SDS011;10809;49.476;11.016;2022-11-14T06:20:22;10.67;;;7.90;;
21299;SDS011;10809;49.476;11.016;2022-11-14T06:23:10;13.67;;;7.83;;
21299;SDS011;10809;49.476;11.016;2022-11-14T06:26:03;13.57;;;8.03;;
21299;SDS011;10809;49.476;11.016;2022-11-14T06:28:54;14.73;;;9.33;;
21299;SDS011;10809;49.476;11.016;2022-11-14T06:31:43;12.83;;;8.60;;
21299;SDS011;10809;49.476;11.016;2022-11-14T06:34:32;13.10;;;8.03;;
21299;SDS011;10809;49.476;11.016;2022-11-14T06:37:21;14.37;;;8.67;;
21299;SDS011;10809;49.476;11.016;2022-11-14T06:40:10;13.03;;;8.40;;
21299;SDS011;10809;49.476;11.016;2022-11-14T06:42:58;13.20;;;8.10;;
21299;SDS011;10809;49.476;11.016;2022-11-14T06:45:47;12.93;;;8.90;;
21299;SDS011;10809;49.476;11.016;2022-11-14T06:48:37;14.87;;;9.03;;
21299;SDS011;10809;49.476;11.016;2022-11-14T06:51:26;16.83;;;9.30;;
21299;SDS011;10809;49.476;11.016;2022-11-14T06:54:16;14.10;;;9.13;;
21299;SDS011;10809;49.476;11.016;2022-11-14T06:57:05;16.43;;;8.90;;
21299;SDS011;10809;49.476;11.016;2022-11-14T06:59:54;14.53;;;9.27;;
21299;SDS011;10809;49.476;11.016;2022-11-14T07:02:44;15.07;;;9.03;;
21299;SDS011;10809;49.476;11.016;2022-11-14T07:05:34;15.03;;;9.67;;
21299;SDS011;10809;49.476;11.016;2022-11-14T07:08:23;15.87;;;9.33;;
21299;SDS011;10809;49.476;11.016;2022-11-14T07:11:12;11.33;;;7.70;;
21299;SDS011;10809;49.476;11.016;2022-11-14T07:14:11;12.20;;;7.90;;
21299;SDS011;10809;49.476;11.016;2022-11-14T07:17:00;14.60;;;7.70;;
21299;SDS011;10809;49.476;11.016;2022-11-14T07:19:49;13.67;;;8.47;;
21299;SDS011;10809;49.476;11.016;2022-11-14T07:22:38;12.07;;;8.80;;
21299;SDS011;10809;49.476;11.016;2022-11-14T07:25:26;13.17;;;8.03;;
21299;SDS011;10809;49.476;11.016;2022-11-14T07:28:16;9.57;;;7.20;;
21299;SDS011;10809;49.476;11.016;2022-11-14T07:31:06;14.03;;;8.13;;
21299;SDS011;10809;49.476;11.016;2022-11-14T07:33:56;13.97;;;8.87;;
21299;SDS011;10809;49.476;11.016;2022-11-14T07:36:45;15.17;;;9.50;;
21299;SDS011;10809;49.476;11.016;2022-11-14T07:39:33;14.60;;;9.50;;
21299;SDS011;10809;49.476;11.016;2022-11-14T07:42:22;13.73;;;9.20;;
21299;SDS011;10809;49.476;11.016;2022-11-14T07:45:11;13.97;;;9.80;;
21299;SDS011;10809;49.476;11.016;2022-11-14T07:48:00;13.07;;;8.80;;
21299;SDS011;10809;49.476;11.016;2022-11-14T07:50:50;15.47;;;8.50;;
21299;SDS011;10809;49.476;11.016;2022-11-14T07:53:39;14.20;;;9.10;;
21299;SDS011;10809;49.476;11.016;2022-11-14T07:56:28;16.23;;;9.53;;
21299;SDS011;10809;49.476;11.016;2022-11-14T07:59:17;15.30;;;8.70;;
21299;SDS011;10809;49.476;11.016;2022-11-14T08:02:07;16.30;;;9.30;;
21299;SDS011;10809;49.476;11.016;2022-11-14T08:05:00;13.17;;;8.63;;
21299;SDS011;10809;49.476;11.016;2022-11-14T08:07:49;9.77;;;7.10;;
21299;SDS011;10809;49.476;11.016;2022-11-14T08:10:39;9.53;;;7.00;;
21299;SDS011;10809;49.476;11.016;2022-11-14T08:13:28;13.53;;;8.43;;
21299;SDS011;10809;49.476;11.016;2022-11-14T08:16:18;10.53;;;7.90;;
21299;SDS011;10809;49.476;11.016;2022-11-14T08:19:06;10.27;;;6.97;;
21299;SDS011;10809;49.476;11.016;2022-11-14T08:21:55;10.40;;;7.20;;
21299;SDS011;10809;49.476;11.016;2022-11-14T08:24:44;11.17;;;8.13;;
21299;SDS011;10809;49.476;11.016;2022-11-14T08:27:33;15.47;;;8.57;;
21299;SDS011;10809;49.476;11.016;2022-11-14T08:30:22;12.77;;;7.73;;
21299;SDS011;10809;49.476;11.016;2022-11-14T08:33:11;19.93;;;9.90;;
21299;SDS011;10809;49.476;11.016;2022-11-14T08:36:01;11.97;;;7.67;;
21299;SDS011;10809;49.476;11.016;2022-11-14T08:38:51;13.00;;;6.83;;
21299;SDS011;10809;49.476;11.016;2022-11-14T08:41:40;12.33;;;7.13;;
21299;SDS011;10809;49.476;11.016;2022-11-14T08:44:29;9.30;;;6.10;;
21299;SDS011;10809;49.476;11.016;2022-11-14T08:47:18;9.67;;;7.27;;
21299;SDS011;10809;49.476;11.016;2022-11-14T08:50:07;9.50;;;6.90;;
21299;SDS011;10809;49.476;11.016;2022-11-14T08:52:56;6.77;;;5.63;;
21299;SDS011;10809;49.476;11.016;2022-11-14T08:55:45;9.03;;;6.67;;
21299;SDS011;10809;49.476;11.016;2022-11-14T08:58:35;7.40;;;5.63;;
21299;SDS011;10809;49.476;11.016;2022-11-14T09:01:24;8.20;;;6.43;;
21299;SDS011;10809;49.476;11.016;2022-11-14T09:04:13;8.77;;;5.80;;
21299;SDS011;10809;49.476;11.016;2022-11-14T09:07:02;7.43;;;5.97;;
21299;SDS011;10809;49.476;11.016;2022-11-14T09:09:51;7.03;;;5.27;;
21299;SDS011;10809;49.476;11.016;2022-11-14T09:12:40;7.20;;;5.83;;
21299;SDS011;10809;49.476;11.016;2022-11-14T09:15:29;7.87;;;5.70;;
21299;SDS011;10809;49.476;11.016;2022-11-14T09:18:18;7.30;;;5.67;;
21299;SDS011;10809;49.476;11.016;2022-11-14T09:21:07;11.20;;;6.73;;
21299;SDS011;10809;49.476;11.016;2022-11-14T09:23:56;5.17;;;4.67;;
21299;SDS011;10809;49.476;11.016;2022-11-14T09:26:45;9.07;;;5.37;;
21299;SDS011;10809;49.476;11.016;2022-11-14T09:29:37;8.03;;;5.70;;
21299;SDS011;10809;49.476;11.016;2022-11-14T09:32:26;8.67;;;5.43;;
21299;SDS011;10809;49.476;11.016;2022-11-14T09:35:15;7.27;;;5.73;;
21299;SDS011;10809;49.476;11.016;2022-11-14T09:38:05;7.40;;;5.40;;
21299;SDS011;10809;49.476;11.016;2022-11-14T09:44:20;7.13;;;5.10;;
21299;SDS011;10809;49.476;11.016;2022-11-14T09:47:41;7.70;;;5.70;;
21299;SDS011;10809;49.476;11.016;2022-11-14T09:50:33;9.47;;;5.93;;
21299;SDS011;10809;49.476;11.016;2022-11-14T09:53:30;7.30;;;5.57;;
21299;SDS011;10809;49.476;11.016;2022-11-14T09:56:22;7.70;;;5.73;;
21299;SDS011;10809;49.476;11.016;2022-11-14T09:59:13;5.77;;;5.07;;
21299;SDS011;10809;49.476;11.016;2022-11-14T10:02:13;7.57;;;5.83;;
21299;SDS011;10809;49.476;11.016;2022-11-14T10:11:32;5.93;;;4.57;;
21299;SDS011;10809;49.476;11.016;2022-11-14T10:17:43;6.83;;;5.10;;
21299;SDS011;10809;49.476;11.016;2022-11-14T10:20:56;6.73;;;4.97;;
21299;SDS011;10809;49.476;11.016;2022-11-14T10:27:26;7.07;;;5.10;;
21299;SDS011;10809;49.476;11.016;2022-11-14T10:30:21;6.53;;;4.90;;
21299;SDS011;10809;49.476;11.016;2022-11-14T10:33:13;6.83;;;5.17;;
21299;SDS011;10809;49.476;11.016;2022-11-14T10:36:43;5.77;;;4.60;;
21299;SDS011;10809;49.476;11.016;2022-11-14T10:39:42;7.20;;;5.47;;
21299;SDS011;10809;49.476;11.016;2022-11-14T10:42:38;6.27;;;4.87;;
21299;SDS011;10809;49.476;11.016;2022-11-14T10:45:43;5.33;;;4.73;;
21299;SDS011;10809;49.476;11.016;2022-11-14T10:48:40;5.57;;;4.73;;
21299;SDS011;10809;49.476;11.016;2022-11-14T10:51:32;5.70;;;4.40;;
21299;SDS011;10809;49.476;11.016;2022-11-14T10:54:32;4.53;;;3.93;;
21299;SDS011;10809;49.476;11.016;2022-11-14T10:57:27;6.53;;;5.20;;
21299;SDS011;10809;49.476;11.016;2022-11-14T11:00:18;5.50;;;4.53;;
21299;SDS011;10809;49.476;11.016;2022-11-14T11:03:10;5.33;;;4.47;;
21299;SDS011;10809;49.476;11.016;2022-11-14T11:05:59;4.70;;;3.70;;
21299;SDS011;10809;49.476;11.016;2022-11-14T11:08:48;3.53;;;3.20;;
21299;SDS011;10809;49.476;11.016;2022-11-14T11:11:57;4.17;;;3.77;;
21299;SDS011;10809;49.476;11.016;2022-11-14T11:15:06;5.20;;;4.33;;
21299;SDS011;10809;49.476;11.016;2022-11-14T11:18:41;4.07;;;3.67;;
21299;SDS011;10809;49.476;11.016;2022-11-14T11:21:24;4.43;;;3.47;;
21299;SDS011;10809;49.476;11.016;2022-11-14T11:24:15;5.97;;;3.70;;
21299;SDS011;10809;49.476;11.016;2022-11-14T11:27:26;3.97;;;3.53;;
21299;SDS011;10809;49.476;11.016;2022-11-14T11:30:21;6.67;;;3.93;;
21299;SDS011;10809;49.476;11.016;2022-11-14T11:33:21;5.93;;;3.67;;
21299;SDS011;10809;49.476;11.016;2022-11-14T11:36:14;4.87;;;3.70;;
21299;SDS011;10809;49.476;11.016;2022-11-14T11:39:08;6.10;;;3.50;;
21299;SDS011;10809;49.476;11.016;2022-11-14T11:42:11;5.13;;;3.40;;
21299;SDS011;10809;49.476;11.016;2022-11-14T11:45:09;5.13;;;4.03;;
21299;SDS011;10809;49.476;11.016;2022-11-14T11:51:15;3.87;;;3.43;;
21299;SDS011;10809;49.476;11.016;2022-11-14T11:54:12;5.77;;;4.07;;
21299;SDS011;10809;49.476;11.016;2022-11-14T11:57:04;3.73;;;3.40;;
21299;SDS011;10809;49.476;11.016;2022-11-14T12:00:05;3.50;;;3.13;;
21299;SDS011;10809;49.476;11.016;2022-11-14T12:03:01;4.53;;;3.87;;
21299;SDS011;10809;49.476;11.016;2022-11-14T12:12:23;4.03;;;3.63;;
21299;SDS011;10809;49.476;11.016;2022-11-14T12:30:33;8.43;;;3.93;;
21299;SDS011;10809;49.476;11.016;2022-11-14T12:33:26;3.30;;;2.87;;
21299;SDS011;10809;49.476;11.016;2022-11-14T12:36:18;5.43;;;3.90;;
21299;SDS011;10809;49.476;11.016;2022-11-14T12:39:18;4.80;;;3.00;;
21299;SDS011;10809;49.476;11.016;2022-11-14T12:42:10;4.20;;;3.33;;
21299;SDS011;10809;49.476;11.016;2022-11-14T12:57:38;2.77;;;2.43;;
21299;SDS011;10809;49.476;11.016;2022-11-14T13:09:31;2.30;;;2.03;;
21299;SDS011;10809;49.476;11.016;2022-11-14T13:12:28;2.60;;;2.40;;
21299;SDS011;10809;49.476;11.016;2022-11-14T13:15:46;2.40;;;2.20;;
21299;SDS011;10809;49.476;11.016;2022-11-14T13:19:17;2.50;;;2.20;;
21299;SDS011;10809;49.476;11.016;2022-11-14T13:22:38;3.97;;;1.83;;
21299;SDS011;10809;49.476;11.016;2022-11-14T13:25:28;2.30;;;1.90;;
21299;SDS011;10809;49.476;11.016;2022-11-14T13:31:42;1.70;;;1.60;;
21299;SDS011;10809;49.476;11.016;2022-11-14T13:34:52;1.73;;;1.33;;
21299;SDS011;10809;49.476;11.016;2022-11-14T13:43:55;1.80;;;1.70;;
21299;SDS011;10809;49.476;11.016;2022-11-14T13:47:02;3.60;;;2.37;;
21299;SDS011;10809;49.476;11.016;2022-11-14T13:53:09;2.03;;;1.60;;
21299;SDS011;10809;49.476;11.016;2022-11-14T14:01:54;3.80;;;1.67;;
21299;SDS011;10809;49.476;11.016;2022-11-14T14:08:30;2.83;;;1.70;;
21299;SDS011;10809;49.476;11.016;2022-11-14T14:21:05;4.63;;;2.03;;
21299;SDS011;10809;49.476;11.016;2022-11-14T14:24:12;2.53;;;1.73;;
21299;SDS011;10809;49.476;11.016;2022-11-14T14:30:08;1.40;;;1.30;;
21299;SDS011;10809;49.476;11.016;2022-11-14T14:35:56;1.30;;;1.20;;
21299;SDS011;10809;49.476;11.016;2022-11-14T14:38:45;1.40;;;1.30;;
21299;SDS011;10809;49.476;11.016;2022-11-14T14:41:34;2.07;;;1.67;;
21299;SDS011;10809;49.476;11.016;2022-11-14T14:44:30;3.23;;;1.50;;
21299;SDS011;10809;49.476;11.016;2022-11-14T14:50:23;3.40;;;1.20;;
21299;SDS011;10809;49.476;11.016;2022-11-14T14:53:19;4.23;;;1.20;;
21299;SDS011;10809;49.476;11.016;2022-11-14T14:56:18;2.23;;;1.23;;
21299;SDS011;10809;49.476;11.016;2022-11-14T14:59:16;1.63;;;1.30;;
21299;SDS011;10809;49.476;11.016;2022-11-14T15:02:10;2.43;;;1.60;;
21299;SDS011;10809;49.476;11.016;2022-11-14T15:05:03;1.63;;;1.40;;
21299;SDS011;10809;49.476;11.016;2022-11-14T15:07:57;1.30;;;1.20;;
21299;SDS011;10809;49.476;11.016;2022-11-14T15:10:48;1.47;;;1.33;;
21299;SDS011;10809;49.476;11.016;2022-11-14T15:13:36;1.53;;;0.90;;
21299;SDS011;10809;49.476;11.016;2022-11-14T15:16:27;1.67;;;1.53;;
21299;SDS011;10809;49.476;11.016;2022-11-14T15:19:22;1.37;;;1.27;;
21299;SDS011;10809;49.476;11.016;2022-11-14T15:28:00;2.00;;;1.67;;
21299;SDS011;10809;49.476;11.016;2022-11-14T15:30:57;2.07;;;1.63;;
21299;SDS011;10809;49.476;11.016;2022-11-14T15:34:01;1.90;;;1.60;;
21299;SDS011;10809;49.476;11.016;2022-11-14T15:37:03;3.70;;;1.30;;
21299;SDS011;10809;49.476;11.016;2022-11-14T15:39:57;1.47;;;1.00;;
21299;SDS011;10809;49.476;11.016;2022-11-14T15:46:25;1.77;;;1.40;;
21299;SDS011;10809;49.476;11.016;2022-11-14T15:49:21;3.23;;;1.20;;
21299;SDS011;10809;49.476;11.016;2022-11-14T15:52:16;2.57;;;1.40;;
21299;SDS011;10809;49.476;11.016;2022-11-14T15:55:13;1.83;;;1.70;;
21299;SDS011;10809;49.476;11.016;2022-11-14T15:58:10;1.90;;;1.70;;
21299;SDS011;10809;49.476;11.016;2022-11-14T16:01:00;2.10;;;1.90;;
21299;SDS011;10809;49.476;11.016;2022-11-14T16:03:49;2.37;;;1.67;;
21299;SDS011;10809;49.476;11.016;2022-11-14T16:06:39;2.87;;;2.20;;
21299;SDS011;10809;49.476;11.016;2022-11-14T16:09:28;3.30;;;1.93;;
21299;SDS011;10809;49.476;11.016;2022-11-14T16:12:16;3.93;;;1.80;;
21299;SDS011;10809;49.476;11.016;2022-11-14T16:15:05;1.77;;;1.63;;
21299;SDS011;10809;49.476;11.016;2022-11-14T16:17:55;2.90;;;1.83;;
21299;SDS011;10809;49.476;11.016;2022-11-14T16:20:44;5.57;;;1.80;;
21299;SDS011;10809;49.476;11.016;2022-11-14T16:23:33;2.67;;;1.93;;
21299;SDS011;10809;49.476;11.016;2022-11-14T16:26:22;2.50;;;2.20;;
21299;SDS011;10809;49.476;11.016;2022-11-14T16:29:14;2.10;;;1.40;;
21299;SDS011;10809;49.476;11.016;2022-11-14T16:32:03;1.73;;;1.63;;
21299;SDS011;10809;49.476;11.016;2022-11-14T16:34:52;2.73;;;2.00;;
21299;SDS011;10809;49.476;11.016;2022-11-14T16:37:41;2.37;;;2.00;;
21299;SDS011;10809;49.476;11.016;2022-11-14T16:40:30;3.00;;;1.83;;
21299;SDS011;10809;49.476;11.016;2022-11-14T16:43:18;3.87;;;2.73;;
21299;SDS011;10809;49.476;11.016;2022-11-14T16:46:08;3.37;;;2.33;;
21299;SDS011;10809;49.476;11.016;2022-11-14T16:48:59;2.23;;;2.00;;
21299;SDS011;10809;49.476;11.016;2022-11-14T16:51:48;2.90;;;2.57;;
21299;SDS011;10809;49.476;11.016;2022-11-14T16:54:38;3.57;;;2.30;;
21299;SDS011;10809;49.476;11.016;2022-11-14T16:57:27;3.47;;;2.50;;
21299;SDS011;10809;49.476;11.016;2022-11-14T17:00:16;3.23;;;2.53;;
21299;SDS011;10809;49.476;11.016;2022-11-14T17:03:05;3.30;;;3.00;;
21299;SDS011;10809;49.476;11.016;2022-11-14T17:05:54;3.10;;;2.60;;
21299;SDS011;10809;49.476;11.016;2022-11-14T17:08:43;3.90;;;2.33;;
21299;SDS011;10809;49.476;11.016;2022-11-14T17:11:32;3.37;;;2.23;;
21299;SDS011;10809;49.476;11.016;2022-11-14T17:14:21;4.00;;;2.43;;
21299;SDS011;10809;49.476;11.016;2022-11-14T17:17:10;3.23;;;2.47;;
21299;SDS011;10809;49.476;11.016;2022-11-14T17:19:59;3.17;;;2.77;;
21299;SDS011;10809;49.476;11.016;2022-11-14T17:22:48;5.07;;;3.30;;
21299;SDS011;10809;49.476;11.016;2022-11-14T17:25:37;4.13;;;3.57;;
21299;SDS011;10809;49.476;11.016;2022-11-14T17:28:26;4.33;;;3.13;;
21299;SDS011;10809;49.476;11.016;2022-11-14T17:31:15;5.13;;;3.30;;
21299;SDS011;10809;49.476;11.016;2022-11-14T17:34:04;3.47;;;3.03;;
21299;SDS011;10809;49.476;11.016;2022-11-14T17:36:53;3.33;;;3.00;;
21299;SDS011;10809;49.476;11.016;2022-11-14T17:39:42;3.83;;;3.37;;
21299;SDS011;10809;49.476;11.016;2022-11-14T17:42:31;4.50;;;3.07;;
21299;SDS011;10809;49.476;11.016;2022-11-14T17:45:20;3.17;;;2.67;;
21299;SDS011;10809;49.476;11.016;2022-11-14T17:48:09;5.07;;;3.53;;
21299;SDS011;10809;49.476;11.016;2022-11-14T17:51:03;2.87;;;2.57;;
21299;SDS011;10809;49.476;11.016;2022-11-14T17:53:59;4.60;;;2.30;;
21299;SDS011;10809;49.476;11.016;2022-11-14T17:56:47;2.87;;;2.30;;
21299;SDS011;10809;49.476;11.016;2022-11-14T17:59:36;4.40;;;2.20;;
21299;SDS011;10809;49.476;11.016;2022-11-14T18:02:26;6.50;;;3.20;;
21299;SDS011;10809;49.476;11.016;2022-11-14T18:05:15;3.67;;;2.87;;
21299;SDS011;10809;49.476;11.016;2022-11-14T18:08:04;3.37;;;2.83;;
21299;SDS011;10809;49.476;11.016;2022-11-14T18:10:53;6.17;;;2.83;;
21299;SDS011;10809;49.476;11.016;2022-11-14T18:13:47;5.10;;;3.63;;
21299;SDS011;10809;49.476;11.016;2022-11-14T18:16:36;5.40;;;3.73;;
21299;SDS011;10809;49.476;11.016;2022-11-14T18:19:24;7.20;;;4.47;;
21299;SDS011;10809;49.476;11.016;2022-11-14T18:22:13;7.33;;;4.93;;
21299;SDS011;10809;49.476;11.016;2022-11-14T18:25:02;8.20;;;5.20;;
21299;SDS011;10809;49.476;11.016;2022-11-14T18:27:52;9.53;;;4.43;;
21299;SDS011;10809;49.476;11.016;2022-11-14T18:30:41;13.77;;;7.33;;
21299;SDS011;10809;49.476;11.016;2022-11-14T18:33:31;14.27;;;7.97;;
21299;SDS011;10809;49.476;11.016;2022-11-14T18:36:22;13.17;;;6.90;;
21299;SDS011;10809;49.476;11.016;2022-11-14T18:39:11;13.13;;;6.87;;
21299;SDS011;10809;49.476;11.016;2022-11-14T18:42:00;7.60;;;5.27;;
21299;SDS011;10809;49.476;11.016;2022-11-14T18:44:49;7.33;;;4.47;;